createdAt,value
2024-03-28T00:00:09.646Z,8.60
2024-03-28T00:05:32.271Z,9.30
2024-03-28T00:10:34.953Z,8.20
2024-03-28T00:15:38.227Z,11.90
2024-03-28T00:20:41.448Z,9.70
2024-03-28T00:25:52.431Z,10.00
2024-03-28T00:30:55.154Z,8.90
2024-03-28T00:35:57.816Z,9.60
2024-03-28T00:41:00.463Z,9.20
2024-03-28T00:46:03.920Z,10.20
2024-03-28T00:51:06.953Z,10.80
2024-03-28T00:56:09.689Z,11.40
2024-03-28T01:01:12.300Z,12.30
2024-03-28T01:06:14.916Z,11.40
2024-03-28T01:11:17.588Z,11.00
2024-03-28T01:16:20.307Z,8.20
2024-03-28T01:21:23.036Z,9.30
2024-03-28T01:26:25.658Z,10.50
2024-03-28T01:31:28.292Z,9.40
2024-03-28T01:36:30.918Z,12.90
2024-03-28T01:41:33.561Z,12.10
2024-03-28T01:46:43.564Z,10.20
2024-03-28T01:51:52.809Z,11.60
2024-03-28T01:56:55.917Z,10.00
2024-03-28T02:01:59.549Z,10.20
2024-03-28T02:07:02.725Z,10.80
2024-03-28T02:12:05.587Z,12.90
2024-03-28T02:17:08.240Z,10.20
2024-03-28T02:22:10.887Z,9.20
2024-03-28T02:27:13.522Z,13.60
2024-03-28T02:32:16.138Z,10.60
2024-03-28T02:37:20.651Z,13.30
2024-03-28T02:42:23.305Z,9.20
2024-03-28T02:47:26.063Z,9.50
2024-03-28T02:52:28.755Z,8.90
2024-03-28T02:57:31.553Z,14.50
2024-03-28T03:02:35.255Z,11.80
2024-03-28T03:07:37.897Z,7.70
2024-03-28T03:12:40.751Z,11.10
2024-03-28T03:17:43.425Z,11.20
2024-03-28T03:22:54.248Z,9.80
2024-03-28T03:28:17.250Z,11.20
2024-03-28T03:33:38.529Z,11.10
2024-03-28T03:38:41.175Z,9.70
2024-03-28T03:43:43.812Z,10.10
2024-03-28T03:48:46.470Z,9.40
2024-03-28T03:53:49.211Z,12.10
2024-03-28T03:58:51.857Z,8.10
2024-03-28T04:03:54.981Z,9.90
2024-03-28T04:08:57.601Z,12.30
2024-03-28T04:14:00.304Z,11.20
2024-03-28T04:19:03.192Z,10.50
2024-03-28T04:24:07.624Z,9.10
2024-03-28T04:29:10.251Z,10.70
2024-03-28T04:34:13.847Z,10.20
2024-03-28T04:39:16.518Z,15.90
2024-03-28T04:44:19.315Z,10.10
2024-03-28T04:49:22.099Z,13.40
2024-03-28T04:54:24.811Z,10.60
2024-03-28T04:59:27.437Z,13.70
2024-03-28T05:04:30.062Z,10.20
2024-03-28T05:09:33.080Z,10.20
2024-03-28T05:14:36.509Z,10.10
2024-03-28T05:19:39.503Z,10.80
2024-03-28T05:24:42.179Z,12.40
2024-03-28T05:29:44.824Z,12.10
2024-03-28T05:34:47.469Z,9.20
2024-03-28T05:39:50.229Z,9.30
2024-03-28T05:44:53.230Z,13.20
2024-03-28T05:49:55.911Z,11.10
2024-03-28T05:54:58.587Z,11.60
2024-03-28T06:00:01.277Z,11.50
2024-03-28T06:05:05.134Z,12.00
2024-03-28T06:10:08.124Z,13.40
2024-03-28T06:15:10.976Z,10.80
2024-03-28T06:20:14.101Z,12.70
2024-03-28T06:25:16.930Z,11.70
2024-03-28T06:30:26.874Z,11.50
2024-03-28T06:35:29.570Z,10.10
2024-03-28T06:40:33.823Z,11.90
2024-03-28T06:45:36.507Z,10.50
2024-03-28T06:50:42.964Z,10.30
2024-03-28T06:55:45.702Z,9.80
2024-03-28T07:00:48.427Z,10.70
2024-03-28T07:05:51.106Z,9.40
2024-03-28T07:10:53.782Z,12.40
2024-03-28T07:15:56.459Z,14.10
2024-03-28T07:20:59.066Z,12.80
2024-03-28T07:26:03.169Z,12.70
2024-03-28T07:31:06.184Z,11.90
2024-03-28T07:36:09.321Z,12.00
2024-03-28T07:41:12.259Z,14.50
2024-03-28T07:46:14.943Z,11.40
2024-03-28T07:51:17.668Z,11.30
2024-03-28T07:56:20.440Z,12.10
2024-03-28T08:01:23.496Z,12.60
2024-03-28T08:06:26.648Z,16.40
2024-03-28T08:11:29.313Z,14.70
2024-03-28T08:16:33.476Z,12.90
2024-03-28T08:21:36.894Z,14.50
2024-03-28T08:26:42.700Z,12.70
2024-03-28T08:31:45.368Z,14.30
2024-03-28T08:36:49.218Z,12.90
2024-03-28T08:41:55.355Z,13.50
2024-03-28T08:46:58.040Z,12.00
2024-03-28T08:52:00.737Z,15.20
2024-03-28T08:57:04.109Z,13.00
2024-03-28T09:02:11.459Z,20.30
2024-03-28T09:07:17.736Z,17.70
2024-03-28T09:17:24.192Z,22.20
2024-03-28T09:22:29.460Z,17.40
2024-03-28T09:27:32.919Z,15.20
2024-03-28T09:32:35.567Z,12.60
2024-03-28T09:37:38.566Z,16.70
2024-03-28T09:42:46.141Z,22.40
2024-03-28T09:47:50.769Z,20.40
2024-03-28T09:52:56.315Z,18.20
2024-03-28T09:58:03.377Z,17.10
2024-03-28T10:03:51.696Z,21.90
2024-03-28T10:08:56.991Z,23.00
2024-03-28T10:14:00.802Z,16.50
2024-03-28T10:19:06.171Z,16.80
2024-03-28T10:24:17.701Z,19.50
2024-03-28T10:29:21.184Z,21.40
2024-03-28T10:34:23.894Z,20.30
2024-03-28T10:39:29.564Z,20.70
2024-03-28T10:44:37.149Z,19.20
2024-03-28T10:49:48.529Z,27.90
2024-03-28T10:54:57.276Z,17.10
2024-03-28T11:00:01.223Z,25.40
2024-03-28T11:05:09.573Z,24.30
2024-03-28T11:10:12.326Z,27.20
2024-03-28T11:15:22.411Z,23.20
2024-03-28T11:20:25.403Z,24.60
2024-03-28T11:25:27.963Z,25.30
2024-03-28T11:30:30.732Z,35.30
2024-03-28T11:35:34.131Z,28.80
2024-03-28T11:40:38.434Z,37.40
2024-03-28T11:46:04.747Z,23.00
2024-03-28T11:51:08.843Z,25.40
2024-03-28T11:56:15.554Z,26.10
2024-03-28T12:01:23.220Z,24.00
2024-03-28T12:06:25.948Z,27.10
2024-03-28T12:11:28.715Z,20.90
2024-03-28T12:16:31.496Z,23.80
2024-03-28T12:21:35.482Z,28.00
2024-03-28T12:26:38.396Z,26.90
2024-03-28T12:31:41.724Z,22.70
2024-03-28T12:36:44.659Z,26.50
2024-03-28T12:41:54.741Z,28.40
2024-03-28T12:46:57.376Z,20.20
2024-03-28T12:52:00.106Z,23.40
2024-03-28T12:57:04.798Z,27.00
2024-03-28T13:02:08.088Z,28.10
2024-03-28T13:07:13.509Z,29.40
2024-03-28T13:12:16.251Z,26.80
2024-03-28T13:17:19.666Z,22.10
2024-03-28T13:22:22.702Z,24.80
2024-03-28T13:27:43.368Z,28.10
2024-03-28T13:32:48.432Z,32.80
2024-03-28T13:37:51.305Z,38.80
2024-03-28T13:42:54.462Z,42.40
2024-03-28T13:47:58.065Z,72.50
2024-03-28T13:53:00.823Z,44.20
2024-03-28T13:58:03.822Z,53.90
2024-03-28T14:03:06.632Z,42.60
2024-03-28T14:08:10.665Z,55.30
2024-03-28T14:13:14.748Z,42.90
2024-03-28T14:18:20.161Z,56.20
2024-03-28T14:23:23.458Z,53.90
2024-03-28T14:28:26.393Z,38.40
2024-03-28T14:33:29.177Z,27.00
2024-03-28T14:38:34.817Z,44.20
2024-03-28T14:43:41.600Z,41.50
2024-03-28T14:48:44.737Z,29.10
2024-03-28T14:53:47.439Z,70.80
2024-03-28T14:58:50.365Z,39.20
2024-03-28T15:03:53.086Z,53.60
2024-03-28T15:08:55.756Z,43.80
2024-03-28T15:13:59.740Z,44.40
2024-03-28T15:19:02.418Z,31.80
2024-03-28T15:24:06.640Z,40.80
2024-03-28T15:29:09.412Z,31.60
2024-03-28T15:34:12.507Z,29.40
2024-03-28T15:39:16.730Z,11.60
2024-03-28T15:44:19.919Z,12.90
2024-03-28T15:49:22.699Z,11.50
2024-03-28T15:54:25.354Z,16.40
2024-03-28T15:59:28.069Z,11.30
2024-03-28T16:04:34.324Z,15.10
2024-03-28T16:09:37.025Z,10.50
2024-03-28T16:14:40.147Z,10.90
2024-03-28T16:19:42.971Z,12.50
2024-03-28T16:24:46.928Z,10.20
2024-03-28T16:29:52.768Z,12.80
2024-03-28T16:34:55.612Z,11.20
2024-03-28T16:39:58.425Z,10.10
2024-03-28T16:45:03.063Z,9.30
2024-03-28T16:50:05.979Z,9.50
2024-03-28T16:55:08.983Z,10.80
2024-03-28T17:00:14.122Z,13.20
2024-03-28T17:05:16.912Z,10.90
2024-03-28T17:10:19.957Z,10.80
2024-03-28T17:15:22.669Z,10.60
2024-03-28T17:20:27.570Z,12.00
2024-03-28T17:25:30.353Z,12.20
2024-03-28T17:30:33.069Z,13.20
2024-03-28T17:35:37.888Z,12.30
2024-03-28T17:40:40.973Z,11.60
2024-03-28T17:45:46.012Z,11.80
2024-03-28T17:50:49.307Z,16.10
2024-03-28T17:55:52.089Z,12.20
2024-03-28T18:01:02.054Z,13.70
2024-03-28T18:06:05.858Z,10.20
2024-03-28T18:11:08.549Z,10.90
2024-03-28T18:16:14.512Z,12.60
2024-03-28T18:21:17.211Z,11.20
2024-03-28T18:26:24.344Z,11.90
2024-03-28T18:31:28.663Z,10.80
2024-03-28T18:36:31.476Z,10.00
2024-03-28T18:41:34.535Z,12.80
2024-03-28T18:46:37.347Z,12.10
2024-03-28T18:51:40.487Z,9.50
2024-03-28T18:56:43.158Z,10.30
2024-03-28T19:01:45.897Z,11.40
2024-03-28T19:06:48.622Z,9.60
2024-03-28T19:11:51.268Z,11.60
2024-03-28T19:16:54.270Z,8.80
2024-03-28T19:21:57.688Z,9.70
2024-03-28T19:27:01.842Z,11.70
2024-03-28T19:32:05.939Z,9.60
2024-03-28T19:37:08.963Z,10.40
2024-03-28T19:42:12.756Z,10.20
2024-03-28T19:47:15.486Z,9.50
2024-03-28T19:52:18.205Z,10.30
2024-03-28T19:57:22.386Z,9.70
2024-03-28T20:02:29.105Z,10.00
2024-03-28T20:07:32.858Z,11.20
2024-03-28T20:12:36.130Z,10.80
2024-03-28T20:17:42.817Z,12.80
2024-03-28T20:27:48.336Z,10.90
2024-03-28T20:32:51.007Z,13.00
2024-03-28T20:37:53.708Z,12.00
2024-03-28T20:42:56.395Z,12.90
2024-03-28T20:47:59.275Z,12.70
2024-03-28T20:53:02.059Z,12.50
2024-03-28T20:58:05.017Z,12.00
2024-03-28T21:03:07.679Z,13.10
2024-03-28T21:08:29.817Z,13.00
2024-03-28T21:13:32.455Z,12.20
2024-03-28T21:18:37.688Z,13.70
2024-03-28T21:23:40.852Z,14.40
2024-03-28T21:28:43.568Z,18.90
2024-03-28T21:33:46.274Z,24.60
2024-03-28T21:38:51.798Z,23.70
2024-03-28T21:43:56.749Z,52.10
2024-03-28T21:49:01.132Z,41.80
2024-03-28T21:54:05.280Z,44.90
2024-03-28T21:59:08.004Z,26.80
2024-03-28T22:04:11.046Z,26.90
2024-03-28T22:09:13.667Z,11.00
2024-03-28T22:14:16.459Z,8.70
2024-03-28T22:19:19.980Z,9.00
2024-03-28T22:24:23.450Z,10.60
2024-03-28T22:29:26.109Z,8.80
2024-03-28T22:34:30.376Z,11.30
2024-03-28T22:39:33.139Z,11.00
2024-03-28T22:44:35.869Z,9.80
2024-03-28T22:49:38.509Z,12.40
2024-03-28T22:54:42.112Z,12.10
2024-03-28T22:59:44.782Z,13.70
2024-03-28T23:04:49.430Z,11.80
2024-03-28T23:09:52.186Z,11.00
2024-03-28T23:14:54.789Z,12.90
2024-03-28T23:19:59.618Z,12.90
2024-03-28T23:25:02.313Z,10.60
2024-03-28T23:30:05.629Z,12.80
2024-03-28T23:35:08.917Z,11.80
2024-03-28T23:40:12.395Z,13.40
2024-03-28T23:45:15.125Z,11.60
2024-03-28T23:50:17.798Z,11.60
2024-03-28T23:55:23.248Z,12.50
